createdAt,value
2019-06-08T00:01:01.425Z,99.90
2019-06-08T00:05:26.666Z,99.90
2019-06-08T00:09:51.670Z,99.90
2019-06-08T00:14:17.428Z,99.90
2019-06-08T00:18:42.069Z,99.90
2019-06-08T00:22:55.653Z,99.90
2019-06-08T00:27:07.687Z,99.90
2019-06-08T00:31:32.370Z,99.90
2019-06-08T00:35:57.318Z,99.90
2019-06-08T00:40:23.132Z,99.90
2019-06-08T00:44:47.364Z,99.90
2019-06-08T00:49:11.603Z,99.90
2019-06-08T00:53:36.319Z,99.90
2019-06-08T00:58:01.209Z,99.90
2019-06-08T01:02:26.798Z,99.90
2019-06-08T01:06:51.813Z,99.90
2019-06-08T01:11:15.972Z,99.90
2019-06-08T01:15:41.525Z,99.90
2019-06-08T01:20:07.931Z,99.90
2019-06-08T01:24:33.462Z,99.90
2019-06-08T01:28:57.514Z,99.90
2019-06-08T01:33:22.681Z,99.90
2019-06-08T01:37:47.262Z,99.90
2019-06-08T01:42:10.398Z,99.90
2019-06-08T01:46:35.094Z,99.90
2019-06-08T01:51:00.222Z,99.90
2019-06-08T01:55:25.513Z,99.90
2019-06-08T01:59:50.600Z,99.90
2019-06-08T02:04:14.477Z,99.90
2019-06-08T02:08:39.247Z,99.90
2019-06-08T02:13:04.179Z,99.90
2019-06-08T02:17:29.426Z,99.90
2019-06-08T02:21:53.712Z,99.90
2019-06-08T02:26:18.290Z,99.90
2019-06-08T02:30:42.959Z,99.90
2019-06-08T02:35:07.946Z,99.90
2019-06-08T02:39:35.313Z,99.90
2019-06-08T02:43:59.231Z,99.90
2019-06-08T02:48:24.569Z,99.70
2019-06-08T02:52:51.928Z,99.90
2019-06-08T02:57:17.670Z,99.90
2019-06-08T03:01:42.891Z,99.90
2019-06-08T03:06:07.526Z,99.90
2019-06-08T03:10:35.188Z,99.90
2019-06-08T03:15:03.542Z,99.90
2019-06-08T03:19:24.919Z,99.90
2019-06-08T03:23:50.129Z,99.90
2019-06-08T03:28:14.615Z,99.90
2019-06-08T03:32:47.050Z,99.90
2019-06-08T03:37:04.943Z,99.90
2019-06-08T03:41:30.024Z,99.90
2019-06-08T03:45:55.102Z,99.90
2019-06-08T03:50:19.393Z,99.90
2019-06-08T03:54:45.287Z,99.90
2019-06-08T03:59:10.144Z,99.90
2019-06-08T04:03:35.302Z,99.90
2019-06-08T04:08:00.415Z,99.30
2019-06-08T04:12:24.946Z,97.50
2019-06-08T04:16:50.289Z,94.40
2019-06-08T04:21:16.446Z,91.90
2019-06-08T04:25:42.375Z,91.10
2019-06-08T04:30:10.853Z,85.10
2019-06-08T04:34:35.776Z,79.50
2019-06-08T04:39:01.016Z,79.70
2019-06-08T04:43:07.840Z,66.50
2019-06-08T04:47:33.616Z,55.50
2019-06-08T04:51:49.687Z,50.20
2019-06-08T04:55:56.031Z,46.20
2019-06-08T05:00:11.156Z,45.40
2019-06-08T05:04:28.144Z,51.20
2019-06-08T05:08:40.984Z,56.70
2019-06-08T05:12:53.713Z,59.10
2019-06-08T05:16:59.947Z,62.30
2019-06-08T05:21:06.326Z,64.50
2019-06-08T05:25:30.567Z,65.10
2019-06-08T05:29:36.974Z,66.70
2019-06-08T05:33:43.441Z,68.50
2019-06-08T05:37:50.729Z,68.30
2019-06-08T05:41:56.977Z,70.40
2019-06-08T05:46:03.209Z,71.70
2019-06-08T05:50:11.131Z,73.30
2019-06-08T05:54:35.774Z,74.90
2019-06-08T05:58:50.158Z,77.10
2019-06-08T06:02:58.177Z,77.80
2019-06-08T06:07:23.395Z,79.20
2019-06-08T06:11:29.645Z,81.50
2019-06-08T06:15:54.937Z,80.00
2019-06-08T06:20:02.658Z,81.70
2019-06-08T06:24:27.471Z,82.40
2019-06-08T06:28:33.702Z,84.30
2019-06-08T06:32:39.955Z,85.10
2019-06-08T06:36:52.231Z,85.80
2019-06-08T06:40:58.533Z,87.60
2019-06-08T06:45:08.255Z,87.00
2019-06-08T06:49:17.711Z,86.50
2019-06-08T06:53:27.287Z,86.80
2019-06-08T06:57:39.059Z,86.70
2019-06-08T07:02:03.306Z,85.70
2019-06-08T07:06:25.006Z,84.40
2019-06-08T07:10:31.318Z,83.70
2019-06-08T07:14:37.497Z,84.40
2019-06-08T07:18:48.178Z,82.60
2019-06-08T07:22:54.580Z,81.50
2019-06-08T07:27:19.490Z,80.70
2019-06-08T07:31:43.455Z,81.40
2019-06-08T07:35:49.965Z,81.10
2019-06-08T07:39:57.562Z,81.20
2019-06-08T07:44:08.147Z,80.70
2019-06-08T07:48:33.074Z,79.50
2019-06-08T07:52:56.568Z,78.10
2019-06-08T07:57:22.346Z,77.70
2019-06-08T08:01:48.366Z,78.00
2019-06-08T08:05:58.517Z,78.50
2019-06-08T08:10:08.830Z,76.50
2019-06-08T08:14:15.104Z,74.90
2019-06-08T08:18:21.345Z,71.60
2019-06-08T08:22:29.644Z,71.10
2019-06-08T08:26:35.609Z,70.80
2019-06-08T08:31:01.922Z,72.10
2019-06-08T08:35:09.007Z,71.20
2019-06-08T08:39:33.821Z,71.00
2019-06-08T08:44:02.826Z,69.50
2019-06-08T08:48:23.902Z,70.90
2019-06-08T08:52:37.414Z,72.70
2019-06-08T08:57:03.613Z,71.20
2019-06-08T09:01:10.277Z,71.40
2019-06-08T09:05:35.234Z,70.80
2019-06-08T09:09:41.518Z,71.10
2019-06-08T09:13:48.828Z,70.00
2019-06-08T09:17:56.475Z,69.10
2019-06-08T09:22:08.328Z,66.50
2019-06-08T09:26:13.670Z,65.80
2019-06-08T09:30:20.656Z,59.50
2019-06-08T09:34:28.307Z,54.90
2019-06-08T09:38:34.762Z,58.10
2019-06-08T09:43:05.414Z,59.30
2019-06-08T09:47:09.344Z,58.20
2019-06-08T09:51:13.726Z,56.00
2019-06-08T09:55:32.535Z,57.50
2019-06-08T09:59:41.543Z,57.70
2019-06-08T10:04:08.535Z,58.40
2019-06-08T10:08:31.612Z,59.20
2019-06-08T10:12:41.100Z,59.50
2019-06-08T10:16:47.832Z,59.40
2019-06-08T10:20:54.760Z,59.90
2019-06-08T10:25:19.118Z,59.30
2019-06-08T10:29:43.868Z,60.80
2019-06-08T10:34:02.161Z,60.30
2019-06-08T10:38:11.529Z,61.00
2019-06-08T10:42:20.935Z,60.80
2019-06-08T10:46:35.336Z,62.00
2019-06-08T10:50:41.609Z,61.80
2019-06-08T10:54:48.849Z,60.60
2019-06-08T10:58:55.231Z,57.70
2019-06-08T11:03:03.370Z,58.20
2019-06-08T11:07:28.035Z,57.70
2019-06-08T11:11:38.115Z,56.90
2019-06-08T11:15:43.360Z,57.80
2019-06-08T11:19:49.590Z,56.70
2019-06-08T11:24:10.843Z,56.50
2019-06-08T11:28:04.011Z,54.30
2019-06-08T11:32:12.906Z,49.20
2019-06-08T11:36:19.632Z,51.50
2019-06-08T11:40:29.010Z,53.00
2019-06-08T11:44:52.875Z,52.70
2019-06-08T11:49:01.175Z,52.60
2019-06-08T11:53:07.843Z,52.80
2019-06-08T11:57:33.254Z,51.90
2019-06-08T12:01:39.493Z,50.60
2019-06-08T12:05:47.860Z,49.90
2019-06-08T12:09:53.681Z,48.80
2019-06-08T12:13:59.929Z,49.00
2019-06-08T12:18:08.332Z,47.80
2019-06-08T12:22:22.971Z,48.20
2019-06-08T12:26:29.226Z,48.10
2019-06-08T12:30:35.451Z,48.50
2019-06-08T12:34:41.753Z,47.80
2019-06-08T12:38:48.674Z,46.50
2019-06-08T12:42:55.022Z,47.70
2019-06-08T12:47:01.283Z,47.20
2019-06-08T12:51:09.930Z,46.10
2019-06-08T12:55:22.689Z,46.60
2019-06-08T12:59:24.717Z,44.50
2019-06-08T13:03:30.966Z,44.50
2019-06-08T13:07:38.585Z,43.50
2019-06-08T13:11:44.930Z,43.90
2019-06-08T13:15:51.180Z,43.20
2019-06-08T13:20:21.826Z,42.80
2019-06-08T13:24:25.887Z,43.20
2019-06-08T13:28:38.629Z,44.50
2019-06-08T13:32:44.830Z,45.10
2019-06-08T13:36:51.739Z,44.80
2019-06-08T13:41:05.687Z,45.50
2019-06-08T13:45:18.843Z,44.10
2019-06-08T13:49:29.602Z,45.70
2019-06-08T13:53:34.157Z,45.00
2019-06-08T13:57:46.162Z,44.70
2019-06-08T14:01:54.080Z,44.20
2019-06-08T14:06:00.397Z,42.80
2019-06-08T14:10:11.471Z,42.70
2019-06-08T14:14:29.052Z,41.80
2019-06-08T14:18:35.699Z,42.90
2019-06-08T14:22:50.380Z,42.70
2019-06-08T14:26:55.450Z,43.00
2019-06-08T14:31:03.993Z,44.10
2019-06-08T14:35:10.609Z,42.30
2019-06-08T14:39:18.804Z,42.20
2019-06-08T14:43:29.963Z,42.70
2019-06-08T14:47:37.529Z,43.60
2019-06-08T14:51:57.938Z,42.00
2019-06-08T14:56:08.773Z,43.80
2019-06-08T15:00:18.845Z,42.80
2019-06-08T15:04:29.320Z,42.70
2019-06-08T15:08:35.103Z,42.50
2019-06-08T15:12:41.578Z,41.70
2019-06-08T15:16:49.506Z,43.00
2019-06-08T15:21:14.137Z,42.50
2019-06-08T15:25:32.818Z,41.90
2019-06-08T15:29:41.292Z,41.50
2019-06-08T15:33:48.217Z,43.30
2019-06-08T15:37:55.256Z,43.20
2019-06-08T15:42:01.496Z,42.50
2019-06-08T15:46:08.761Z,41.90
2019-06-08T15:50:17.991Z,42.90
2019-06-08T15:54:29.010Z,43.00
2019-06-08T15:58:34.254Z,44.10
2019-06-08T16:02:41.337Z,42.30
2019-06-08T16:06:55.810Z,43.60
2019-06-08T16:11:02.357Z,43.50
2019-06-08T16:15:16.000Z,43.00
2019-06-08T16:19:27.484Z,44.50
2019-06-08T16:23:44.067Z,44.70
2019-06-08T16:28:08.110Z,44.70
2019-06-08T16:32:33.514Z,43.40
2019-06-08T16:36:58.159Z,44.90
2019-06-08T16:41:04.645Z,45.30
2019-06-08T16:45:12.188Z,45.30
2019-06-08T16:49:31.220Z,45.10
2019-06-08T16:53:55.643Z,46.10
2019-06-08T16:58:03.406Z,47.00
2019-06-08T17:02:18.434Z,45.30
2019-06-08T17:06:31.607Z,45.60
2019-06-08T17:10:38.687Z,46.60
2019-06-08T17:14:52.065Z,46.30
2019-06-08T17:19:05.440Z,46.60
2019-06-08T17:23:13.457Z,46.80
2019-06-08T17:27:26.653Z,47.40
2019-06-08T17:31:32.952Z,46.40
2019-06-08T17:35:40.155Z,46.00
2019-06-08T17:39:55.453Z,46.90
2019-06-08T17:44:14.818Z,47.00
2019-06-08T17:48:34.624Z,47.40
2019-06-08T17:52:49.328Z,47.80
2019-06-08T17:57:04.429Z,48.00
2019-06-08T18:01:17.024Z,47.70
2019-06-08T18:05:24.141Z,48.30
2019-06-08T18:09:42.293Z,48.80
2019-06-08T18:14:07.339Z,49.80
2019-06-08T18:18:32.593Z,50.00
2019-06-08T18:22:46.551Z,50.30
2019-06-08T18:26:58.571Z,50.40
2019-06-08T18:31:07.501Z,50.50
2019-06-08T18:35:20.149Z,50.90
2019-06-08T18:39:49.501Z,51.20
2019-06-08T18:44:08.496Z,51.70
2019-06-08T18:48:35.935Z,52.40
2019-06-08T18:52:49.757Z,52.60
2019-06-08T18:56:55.797Z,52.80
2019-06-08T19:01:23.746Z,53.40
2019-06-08T19:05:32.561Z,54.00
2019-06-08T19:09:41.258Z,54.40
2019-06-08T19:13:54.830Z,54.70
2019-06-08T19:18:08.169Z,55.30
2019-06-08T19:22:18.958Z,55.90
2019-06-08T19:26:28.227Z,56.30
2019-06-08T19:31:11.796Z,57.20
2019-06-08T19:35:37.646Z,57.70
2019-06-08T19:39:46.382Z,58.60
2019-06-08T19:44:01.343Z,59.70
2019-06-08T19:48:12.037Z,60.50
2019-06-08T19:52:19.746Z,62.20
2019-06-08T19:56:35.549Z,63.10
2019-06-08T20:00:58.832Z,64.20
2019-06-08T20:05:07.586Z,65.40
2019-06-08T20:09:25.055Z,66.60
2019-06-08T20:13:32.091Z,68.70
2019-06-08T20:17:39.742Z,69.90
2019-06-08T20:22:04.271Z,70.50
2019-06-08T20:26:29.262Z,71.20
2019-06-08T20:30:54.625Z,73.00
2019-06-08T20:35:08.081Z,74.50
2019-06-08T20:39:14.657Z,76.20
2019-06-08T20:43:22.562Z,77.90
2019-06-08T20:47:39.160Z,79.70
2019-06-08T20:51:51.275Z,82.50
2019-06-08T20:56:00.835Z,85.20
2019-06-08T21:00:11.914Z,88.90
2019-06-08T21:04:20.562Z,90.30
2019-06-08T21:08:28.478Z,90.90
2019-06-08T21:12:37.975Z,92.60
2019-06-08T21:16:47.806Z,94.10
2019-06-08T21:21:05.332Z,94.60
2019-06-08T21:25:17.480Z,94.20
2019-06-08T21:29:28.842Z,94.20
2019-06-08T21:33:37.840Z,94.20
2019-06-08T21:37:48.170Z,95.40
2019-06-08T21:42:07.759Z,96.10
2019-06-08T21:46:13.774Z,97.00
2019-06-08T21:50:21.099Z,97.60
2019-06-08T21:54:27.617Z,97.90
2019-06-08T21:58:53.169Z,98.40
2019-06-08T22:03:08.092Z,98.30
2019-06-08T22:07:17.373Z,98.50
2019-06-08T22:11:29.746Z,98.80
2019-06-08T22:15:51.517Z,99.30
2019-06-08T22:20:15.084Z,99.90
2019-06-08T22:24:27.738Z,99.90
2019-06-08T22:28:34.925Z,99.90
2019-06-08T22:32:41.605Z,99.90
2019-06-08T22:36:59.939Z,99.90
2019-06-08T22:41:07.861Z,99.90
2019-06-08T22:45:31.615Z,99.90
2019-06-08T22:49:58.660Z,99.90
2019-06-08T22:54:21.835Z,99.90
2019-06-08T22:58:39.453Z,99.90
2019-06-08T23:03:04.343Z,99.90
2019-06-08T23:07:32.600Z,99.90
2019-06-08T23:11:59.121Z,99.90
2019-06-08T23:16:06.170Z,99.90
2019-06-08T23:20:31.006Z,99.90
2019-06-08T23:24:58.425Z,99.90
2019-06-08T23:29:07.830Z,99.90
2019-06-08T23:33:32.093Z,99.90
2019-06-08T23:37:57.277Z,99.90
2019-06-08T23:42:22.305Z,99.90
2019-06-08T23:46:47.623Z,99.90
2019-06-08T23:51:09.089Z,99.90
2019-06-08T23:55:17.985Z,99.90
2019-06-08T23:59:41.734Z,99.90
